North Liberty, Ohio
Current Conditions -  °F | °C
As of 1:15 AM on Saturday 25 Oct 2014 (Local Time) from K4I3 Reporting Station
Scattered Clouds Scattered Clouds  
Wind Chill: 48°   Ceiling: Unl
Heat Index: 48°   Visibility: 10mi
Dew Point: 37°   Wind: 3mph
Humidity: 66%   Direction: 260°W
Pressure: 30.01"   Gusts: NA
Location:  40.557°N, 82.3946°W
Report Text: K4I3 250515Z AUTO 26003KT 10SM SCT039 09/03 A3001 RMK AO2
Loading
Personal Weather Stations






























Interactive Weather Map
Tropical Storm Tracking
New forecast layout! Learn more

10-Day Weather Forecast

Advertisements
Track Severe Weather on mobile